Caister-on-Sea, United Kingdom
Current Conditions -  °F | °C
As of 11:20 AM on Friday 31 Oct 2014 (Local Time) from EGSD Reporting Station
Clear Clear  
Wind Chill: 66°   Ceiling: Unl
Heat Index: 66°   Visibility: 5mi
Dew Point: 59°   Wind: 7mph
Humidity: 78%   Direction: 190°S
Pressure: 30.06"   Gusts: NA
Location:  52.65°N, 1.73°E
Report Text: EGSD 311120Z 19006KT 8000 NSC 19/15 Q1018
Loading
Personal Weather Stations






























Interactive Weather Map
Tropical Storm Tracking
New forecast layout! Learn more

10-Day Weather Forecast

Advertisements
Track Severe Weather on mobile